• Join FlightAware (Why Join?)
  • Login
  • US Flag 
04:05AM EDT


 

Airport Tracker/Info


-or-


 

Live Flight TrackerFlight Track Log ✈ AWE1126 ✈ 11-May-2013 ✈ KMSY - KDCA

Flight Track Log - Related Links

Times and Time Zones

All times are in EDT time to prevent confusion due to time zone crossing. See the AWE1126 flight status page for this flight to view local times or setup timezone preferences in your user account.

Time Position Orientation Groundspeed Altitude Reporting Facility
EDT Latitude Longitude Course Direction KTS MPH feet Rate Location/Type
12:29PM 29.9761 -90.2539 60° Northeast 150 173 900  Level Houston Center
12:30PM 29.9492 -90.2622 195° South 148 170 2,000 1,200 Climbing Houston Center
12:31PM 29.9172 -90.2714 194° South 178 205 2,600 1,620 Climbing Houston Center
12:31PM 29.8847 -90.2694 177° South 249 287 3,800 2,460 Climbing Houston Center
12:32PM 30.2484 -89.8857 50° Northeast  Level FlightAware Approximate
12:32PM 29.8644 -90.2372 126° Southeast 221 254 5,200  Level Houston Center
12:32PM 29.8697 -90.1911 82° East 290 334 6,200 1,920 Climbing Houston Center
12:33PM 30.3337 -89.7578 52° Northeast  Level FlightAware Approximate
12:33PM 29.8978 -90.1611 43° Northeast 271 312 7,200  Level Houston Center
12:34PM 30.4184 -89.6298 60° Northeast  Level FlightAware Approximate
12:34PM 29.9675 -90.1075 34° Northeast 296 341 10,100  Level Houston Center
12:35PM 30.4942 -89.5283 60° Northeast  Level FlightAware Approximate
12:35PM 30.0478 -90.0472 33° Northeast 337 388 11,600  Level Houston Center
12:36PM 30.1467 -89.9689 34° Northeast 358 412 15,100 2,640 Climbing Houston Center
12:37PM 30.2322 -89.9003 35° Northeast 371 427 17,100 1,860 Climbing Houston Center
12:38PM 30.3278 -89.8244 34° Northeast 391 450 19,000 1,560 Climbing Houston Center
12:39PM 30.4042 -89.7500 40° Northeast 420 483 20,400 1,740 Climbing Houston Center
12:40PM 30.4831 -89.6067 57° Northeast 440 506 22,600 1,800 Climbing Houston Center
12:41PM 30.5522 -89.4817 57° Northeast 451 519 24,100 1,440 Climbing Houston Center
12:42PM 30.6222 -89.3556 57° Northeast 462 532 25,600 1,380 Climbing Houston Center
12:43PM 30.6922 -89.2244 58° Northeast 474 545 27,000 660 Climbing Houston Center
12:44PM 30.7619 -89.0947 58° Northeast 473 544 27,000  Level Houston Center
12:45PM 30.8314 -88.9644 58° Northeast 474 545 27,000  Level Houston Center
12:46PM 30.9050 -88.8294 58° Northeast 484 557 27,000  Level Houston Center
12:47PM 30.9983 -88.6586 57° Northeast 513 590 27,000  Level Houston Center
12:48PM 31.0733 -88.5211 57° Northeast 509 586 27,000  Level Houston Center
12:49PM 31.1475 -88.3825 58° Northeast 505 581 27,000  Level Houston Center
12:50PM 31.1994 -88.2989 54° Northeast 482 555 27,000  Level Atlanta Center
12:51PM 31.2800 -88.1422 59° Northeast 487 560 27,000  Level Atlanta Center
12:51PM 31.3036 -88.0947 60° Northeast 506 582 27,000  Level Houston Center
12:52PM 31.3792 -87.9531 58° Northeast 508 585 27,000  Level Houston Center
12:53PM 31.4286 -87.8619 58° Northeast 501 577 27,000  Level Atlanta Center
12:54PM 31.5039 -87.7189 58° Northeast 506 582 27,000  Level Atlanta Center
12:55PM 31.5792 -87.5758 58° Northeast 506 582 27,000  Level Atlanta Center
12:56PM 31.6561 -87.4325 58° Northeast 506 582 27,000  Level Atlanta Center
12:57PM 31.7181 -87.3006 61° Northeast 506 582 27,000  Level Atlanta Center
12:58PM 31.7928 -87.1589 58° Northeast 506 582 27,000  Level Atlanta Center
12:59PM 31.8672 -87.0172 58° Northeast 506 582 27,000  Level Atlanta Center
01:00PM 31.9417 -86.8731 59° Northeast 506 582 27,000  Level Atlanta Center
01:01PM 32.0136 -86.7331 59° Northeast 506 582 27,000  Level Atlanta Center
01:02PM 32.0983 -86.5789 57° Northeast 512 589 27,000  Level Atlanta Center
01:03PM 32.1719 -86.4386 58° Northeast 507 583 27,000  Level Atlanta Center
01:04PM 32.2328 -86.3125 60° Northeast 496 571 27,000  Level Atlanta Center
01:05PM 32.3144 -86.1794 54° Northeast 496 571 27,000  Level Atlanta Center
01:06PM 32.4044 -86.0464 51° Northeast 501 577 27,000  Level Atlanta Center
01:07PM 32.4919 -85.9203 51° Northeast 501 577 27,000  Level Atlanta Center
01:08PM 32.5903 -85.7744 51° Northeast 513 590 27,000  Level Atlanta Center
01:09PM 32.6756 -85.6453 52° Northeast 503 579 27,000  Level Atlanta Center
01:10PM 32.7625 -85.5161 51° Northeast 503 579 27,000  Level Atlanta Center
01:11PM 32.8475 -85.3864 52° Northeast 503 579 27,000  Level Atlanta Center
01:12PM 32.9303 -85.2589 52° Northeast 503 579 27,000  Level Atlanta Center
01:13PM 33.0172 -85.1314 51° Northeast 498 573 27,000  Level Atlanta Center
01:14PM 33.0933 -85.0183 51° Northeast 492 566 27,000  Level Atlanta Center
01:15PM 33.1797 -84.8828 53° Northeast 498 573 27,100  Climbing Atlanta Center
01:16PM 33.2661 -84.7519 52° Northeast 504 580 27,100 -300 Level Atlanta Center
01:17PM 33.3503 -84.6183 53° Northeast 504 580 26,600 -840 Descending Atlanta Center
01:18PM 33.4344 -84.4919 51° Northeast 504 580 25,500 -840 Descending Atlanta Center
01:19PM 33.5161 -84.3603 53° Northeast 497 572 25,000 -300 Descending Atlanta Center
01:20PM 33.6000 -84.2308 52° Northeast 491 565 25,000  Level Atlanta Center
01:21PM 33.6858 -84.0961 53° Northeast 491 565 25,000  Level Atlanta Center
01:22PM 33.7692 -83.9664 52° Northeast 491 565 25,000  Level Atlanta Center
01:23PM 33.8547 -83.8361 52° Northeast 491 565 25,000  Level Atlanta Center
01:24PM 33.9358 -83.7033 54° Northeast 485 558 25,000  Level Atlanta Center
01:25PM 34.0208 -83.5725 52° Northeast 485 558 25,000  Level Atlanta Center
01:26PM 34.1119 -83.4242 53° Northeast 485 558 25,000  Level Atlanta Center
01:27PM 34.1969 -83.2903 52° Northeast 490 564 25,000  Level Atlanta Center
01:28PM 34.2794 -83.1589 53° Northeast 490 564 25,000  Level Atlanta Center
01:29PM 34.3619 -83.0222 54° Northeast 490 564 25,000  Level Atlanta Center
01:30PM 34.4442 -82.8878 53° Northeast 485 558 25,000  Level Atlanta Center
01:31PM 34.5306 -82.7578 51° Northeast 490 564 25,000  Level Atlanta Center
01:32PM 34.6147 -82.6228 53° Northeast 490 564 25,000  Level Atlanta Center
01:33PM 34.6842 -82.5031 55° Northeast 490 564 25,000  Level Atlanta Center
01:34PM 34.7658 -82.3675 54° Northeast 485 558 25,000  Level Atlanta Center
01:35PM 34.8494 -82.2317 53° Northeast 485 558 25,000  Level Atlanta Center
01:36PM 34.9411 -82.0828 53° Northeast 491 565 25,000  Level Atlanta Center
01:37PM 35.0244 -81.9489 53° Northeast 486 559 25,000 -60 Level Atlanta Center
01:38PM 35.0992 -81.8072 57° Northeast 491 565 24,900  Descending Atlanta Center
01:39PM 35.1736 -81.6656 57° Northeast 496 571 25,000  Climbing Atlanta Center
01:40PM 35.2481 -81.5211 58° Northeast 496 571 25,000  Level Atlanta Center
01:41PM 35.3222 -81.3814 57° Northeast 491 565 25,000  Level Atlanta Center
01:42PM 35.3942 -81.2364 59° Northeast 491 565 25,000  Level Atlanta Center
01:43PM 35.4722 -81.0908 57° Northeast 499 574 25,000 -420 Level Atlanta Center
01:44PM 35.5478 -80.9453 57° Northeast 505 581 24,200 -540 Descending Atlanta Center
01:45PM 35.6214 -80.8044 57° Northeast 500 575 24,000 -120 Descending Atlanta Center
01:46PM 35.6928 -80.6661 58° Northeast 487 560 24,000  Level Atlanta Center
01:47PM 35.7681 -80.5222 57° Northeast 492 566 24,000  Level Atlanta Center
01:48PM 35.8292 -80.3992 58° Northeast 486 559 24,000  Level Atlanta Center
01:50PM 36.0039 -80.0597 57° Northeast 478 550 24,000  Level Washington Center
01:51PM 36.0756 -79.9250 57° Northeast 473 544 24,000  Level Washington Center
01:52PM 36.1533 -79.7878 55° Northeast 473 544 24,000 -360 Level Washington Center
01:53PM 36.2403 -79.6325 55° Northeast 485 558 23,300 -540 Descending Washington Center
01:54PM 36.3178 -79.4950 55° Northeast 485 558 23,000 -180 Descending Washington Center
01:55PM 36.3864 -79.3719 55° Northeast 480 552 23,000  Level Washington Center
01:56PM 36.4614 -79.2411 54° Northeast 474 545 23,000  Level Washington Center
01:57PM 36.5342 -79.1103 55° Northeast 474 545 23,000  Level Washington Center
01:58PM 36.6111 -78.9764 54° Northeast 469 540 23,000  Level Washington Center
01:59PM 36.6925 -78.8247 56° Northeast 469 540 23,000  Level Washington Center
02:00PM 36.7650 -78.6903 56° Northeast 469 540 23,000  Level Washington Center
02:01PM 36.8328 -78.5683 55° Northeast 474 545 23,000  Level Washington Center
02:02PM 36.9136 -78.4183 56° Northeast 479 551 23,000  Level Washington Center
02:03PM 36.9953 -78.3119 46° Northeast 474 545 23,000  Level Washington Center
02:04PM 37.1036 -78.2169 35° Northeast 463 533 23,000  Level Washington Center
02:05PM 37.2228 -78.1167 34° Northeast 463 533 23,000  Level Washington Center
02:06PM 37.3289 -78.0208 36° Northeast 463 533 23,000  Level Washington Center
02:07PM 37.4372 -77.9250 35° Northeast 463 533 23,000  Level Washington Center
02:08PM 37.5475 -77.8289 35° Northeast 470 541 23,000 -300 Level Washington Center
02:09PM 37.6517 -77.7322 36° Northeast 476 548 22,500 -1,440 Descending Washington Center
02:10PM 37.7594 -77.6381 35° Northeast 476 548 20,200 -2,040 Descending Washington Center
02:11PM 37.8569 -77.5511 35° Northeast 453 521 18,400 -2,220 Descending Washington Center
02:12PM 37.9603 -77.4828 28° Northeast 437 503 15,800 -2,280 Descending Washington Center
02:13PM 38.0614 -77.4194 26° Northeast 411 473 13,900 -1,740 Descending Washington Center
02:14PM 38.1522 -77.3372 35° Northeast 398 458 12,400 -1,560 Descending Washington Center
02:15PM 38.2286 -77.2436 44° Northeast 388 447 10,800 -1,260 Descending Washington Center
02:16PM 38.3211 -77.1903 24° Northeast 370 426 10,000 -540 Descending Washington Center
02:17PM 38.4092 -77.1550 17° North 343 395 9,800 -480 Descending Washington Center
02:18PM 38.4867 -77.1247 17° North 314 361 9,100 -420 Descending Washington Center
02:19PM 38.5578 -77.1022 14° North 281 323 9,000 -60 Descending Washington Center
02:20PM 38.6289 -77.0878 North 257 296 9,000 60 Level Washington Center
02:21PM 38.6667 -77.0667 24° Northeast 259 298 9,100 60 Climbing Potomac TRACON
02:22PM 38.7333 -77.0333 21° North 267 307 9,100  Level Potomac TRACON
02:23PM 38.8000 -76.9833 30° Northeast 271 312 9,100 -60 Level Potomac TRACON
02:24PM 38.8667 -76.9500 21° North 288 331 9,000 -300 Descending Potomac TRACON
02:25PM 38.9167 -76.9667 345° North 225 259 8,600 -840 Descending Potomac TRACON
02:26PM 38.9667 -77.0000 333° Northwest 207 238 7,400 -1,260 Descending Potomac TRACON
02:27PM 39.0000 -77.0500 311° West 208 239 6,100 -1,440 Descending Potomac TRACON
02:28PM 39.0167 -77.1167 288° West 185 213 4,600 -1,800 Descending Potomac TRACON
02:29PM 38.9667 -77.1500 207° Southwest 202 232 2,500 -2,100 Descending Potomac TRACON